Time;durP1;ratioP1;P1;durP2;ratioP2;P2;SDS_P1;SDS_P2;PMS_P1;PMS_P2;Temp;Humidity;BMP_temperature;BMP_pressure;BME280_temperature;BME280_humidity;BME280_pressure;Samples;Min_cycle;Max_cycle;Signal;HPM_P1;HPM_P2
2021/03/25 00:00:28;;;;;;;;;25.25;22.25;;;;;26.18;54.26;98937.41;5037907;28;9896;-74
2021/03/25 00:02:58;;;;;;;;;32.25;29.25;;;;;26.28;53.46;98959.19;5042350;28;9785;-74
2021/03/25 00:05:30;;;;;;;;;28.00;27.75;;;;;26.31;54.30;98968.50;5034140;28;9515;-74
2021/03/25 00:07:59;;;;;;;;;31.75;28.25;;;;;26.31;53.80;98960.38;5033333;28;9476;-74
2021/03/25 00:10:35;;;;;;;;;34.00;32.25;;;;;26.31;54.19;98972.00;5033109;28;9560;-74
2021/03/25 00:13:05;;;;;;;;;35.75;30.00;;;;;26.35;54.26;98982.88;5031238;28;9752;-75
2021/03/25 00:15:34;;;;;;;;;30.25;27.25;;;;;26.26;53.88;98966.88;5032974;28;9759;-75
2021/03/25 00:18:04;;;;;;;;;32.00;27.50;;;;;26.34;53.70;98973.19;5032707;28;9683;-75
2021/03/25 00:20:33;;;;;;;;;33.75;31.50;;;;;26.40;53.32;98979.84;5032995;28;9558;-75
2021/03/25 00:23:01;;;;;;;;;28.50;26.25;;;;;26.42;53.33;98990.31;5033004;28;9762;-75
2021/03/25 00:25:35;;;;;;;;;33.25;27.75;;;;;26.44;53.50;98994.19;5032547;28;9858;-74
2021/03/25 00:28:11;;;;;;;;;28.50;28.50;;;;;26.44;54.06;98994.19;5047792;28;10236;-75
2021/03/25 00:30:41;;;;;;;;;30.75;30.00;;;;;26.46;53.80;99001.94;5031737;28;10264;-75
2021/03/25 00:33:11;;;;;;;;;33.00;28.50;;;;;26.48;53.53;99003.16;5031988;28;9480;-75
2021/03/25 00:35:42;;;;;;;;;31.75;29.25;;;;;26.43;52.54;98989.94;5032043;28;9612;-75
2021/03/25 00:38:11;;;;;;;;;32.50;30.25;;;;;26.53;52.81;99008.25;5032060;28;9577;-73
2021/03/25 00:40:46;;;;;;;;;36.75;31.00;;;;;26.44;52.97;98996.13;5033669;28;9818;-72
2021/03/25 00:43:16;;;;;;;;;28.25;24.25;;;;;26.55;52.72;99011.34;5037562;28;9717;-71
2021/03/25 00:45:47;;;;;;;;;28.25;28.25;;;;;26.56;52.88;99021.03;5039997;28;9673;-71
2021/03/25 00:48:17;;;;;;;;;34.00;31.00;;;;;26.53;52.79;99019.06;5041750;28;9651;-74
2021/03/25 00:50:50;;;;;;;;;33.00;27.75;;;;;26.54;52.53;99023.31;5037208;28;10460;-76
2021/03/25 00:53:24;;;;;;;;;43.25;32.25;;;;;26.58;52.66;99032.28;5037711;28;9468;-76
2021/03/25 00:55:53;;;;;;;;;32.75;27.75;;;;;26.54;52.98;99031.44;5036707;28;9778;-78
2021/03/25 00:58:22;;;;;;;;;33.50;28.50;;;;;26.61;52.45;99045.06;5055057;28;9529;-76
2021/03/25 01:00:51;;;;;;;;;29.50;27.75;;;;;26.53;52.00;99032.59;5040705;28;9812;-77
2021/03/25 01:03:26;;;;;;;;;31.25;30.00;;;;;26.61;52.50;99042.34;5036425;28;9597;-72
2021/03/25 01:05:56;;;;;;;;;41.25;35.00;;;;;26.59;52.64;99039.25;5039932;28;9786;-74
2021/03/25 01:08:25;;;;;;;;;42.25;36.25;;;;;26.63;52.19;99045.47;5039693;28;10882;-74
2021/03/25 01:11:14;;;;;;;;;32.75;29.25;;;;;26.65;52.23;99047.81;5042352;28;10028;-75
2021/03/25 01:13:46;;;;;;;;;31.50;28.50;;;;;26.67;52.20;99056.34;5039826;28;9876;-75
2021/03/25 01:16:23;;;;;;;;;36.75;31.75;;;;;26.69;52.54;99059.47;5037711;28;9638;-75
2021/03/25 01:18:53;;;;;;;;;35.50;31.00;;;;;26.62;52.44;99052.03;5036573;28;10527;-73
2021/03/25 01:21:21;;;;;;;;;37.00;30.00;;;;;26.71;52.24;99059.09;5040170;28;9691;-74
2021/03/25 01:23:50;;;;;;;;;33.00;30.25;;;;;26.73;51.98;99057.59;5040889;28;9704;-75
2021/03/25 01:26:19;;;;;;;;;30.00;30.00;;;;;26.77;52.18;99066.53;5040469;28;9702;-75
2021/03/25 01:28:47;;;;;;;;;35.50;30.00;;;;;26.87;52.17;99081.38;5042875;28;9640;-76
2021/03/25 01:31:16;;;;;;;;;25.00;25.00;;;;;26.86;51.98;99082.50;5049618;28;9537;-73
2021/03/25 01:33:45;;;;;;;;;36.00;31.00;;;;;26.86;51.98;99079.81;5044777;28;9833;-74
2021/03/25 01:36:14;;;;;;;;;38.00;34.25;;;;;26.89;52.04;99085.25;5039536;28;9562;-76
2021/03/25 01:38:42;;;;;;;;;32.00;28.25;;;;;26.89;52.12;99087.97;5043986;28;9700;-75
2021/03/25 01:41:23;;;;;;;;;30.25;29.75;;;;;27.02;52.24;99106.72;5050167;28;9599;-75
2021/03/25 01:43:51;;;;;;;;;32.50;30.25;;;;;26.98;51.90;99100.47;5049395;28;10432;-74
2021/03/25 01:46:29;;;;;;;;;28.75;28.75;;;;;27.08;52.28;99111.44;5050023;28;9621;-76
2021/03/25 01:49:10;;;;;;;;;28.25;27.25;;;;;27.10;51.82;99111.09;5050323;28;9542;-76
2021/03/25 01:52:02;;;;;;;;;26.33;25.33;;;;;27.14;52.44;99120.81;5049965;28;9587;-78
2021/03/25 01:54:43;;;;;;;;;31.75;30.50;;;;;27.19;51.92;99119.72;5049802;28;9609;-74
2021/03/25 01:57:35;;;;;;;;;25.00;23.00;;;;;27.23;51.44;99126.72;5050558;28;9548;-75
2021/03/25 02:00:14;;;;;;;;;32.75;29.75;;;;;27.25;51.35;99119.03;5049944;28;9269;-74
2021/03/25 02:03:05;;;;;;;;;38.00;29.50;;;;;27.28;50.95;99118.28;5049757;28;9825;-77
2021/03/25 02:05:57;;;;;;;;;34.25;29.50;;;;;27.33;51.35;99127.97;5050166;28;9789;-76
2021/03/25 02:08:37;;;;;;;;;32.25;29.50;;;;;27.35;52.64;99130.31;5048743;28;10431;-75
2021/03/25 02:11:20;;;;;;;;;34.00;30.50;;;;;27.37;52.31;99133.44;5049915;28;9573;-77
2021/03/25 02:14:01;;;;;;;;;26.75;24.75;;;;;27.44;52.44;99136.25;5050311;28;9707;-76
2021/03/25 02:16:56;;;;;;;;;41.00;32.25;;;;;27.50;52.53;99132.81;5048470;28;9533;-75
2021/03/25 02:19:40;;;;;;;;;34.25;32.25;;;;;27.57;53.01;99132.91;5031305;28;9580;-77
2021/03/25 02:22:08;;;;;;;;;39.50;30.25;;;;;27.65;52.12;99133.81;5030306;28;9700;-75
2021/03/25 02:24:48;;;;;;;;;32.00;26.50;;;;;27.69;52.54;99136.56;5030827;28;9474;-79
2021/03/25 02:27:33;;;;;;;;;30.67;27.33;;;;;27.73;51.38;99132.72;5030571;28;9579;-77
2021/03/25 02:30:09;;;;;;;;;23.67;21.67;;;;;27.79;51.40;99141.31;5030261;28;9319;-81
2021/03/25 02:32:58;;;;;;;;;29.00;26.00;;;;;27.83;51.07;99142.91;5030506;28;9246;-76
2021/03/25 02:35:30;;;;;;;;;27.33;27.33;;;;;27.87;51.05;99142.94;5030104;28;9250;-77
2021/03/25 02:38:08;;;;;;;;;28.00;26.67;;;;;27.89;50.92;99141.41;5033897;28;9256;-81
2021/03/25 02:40:49;;;;;;;;;28.25;24.25;;;;;27.85;51.13;99132.47;5033607;28;10069;-78
2021/03/25 02:43:23;;;;;;;;;24.00;21.67;;;;;27.89;51.08;99136.00;5033794;28;9566;-77
2021/03/25 02:46:01;;;;;;;;;21.00;21.00;;;;;27.91;50.74;99138.31;5033628;28;9276;-77
2021/03/25 02:48:33;;;;;;;;;32.33;26.67;;;;;27.97;51.09;99141.47;5041082;28;9322;-79
2021/03/25 02:51:17;;;;;;;;;28.00;25.67;;;;;27.98;50.75;99143.81;5043231;28;9313;-80
2021/03/25 02:53:47;;;;;;;;;30.33;22.33;;;;;27.99;51.24;99150.03;5045315;28;9249;-78
2021/03/25 02:56:27;;;;;;;;;22.67;22.67;;;;;28.03;51.39;99140.00;5065433;28;9096;-77
2021/03/25 02:59:17;;;;;;;;;24.00;23.00;;;;;28.10;51.03;99135.41;5046241;28;9065;-76
2021/03/25 03:01:51;;;;;;;;;24.00;24.00;;;;;28.16;50.76;99131.19;5044367;28;9207;-75
2021/03/25 03:04:30;;;;;;;;;25.33;25.33;;;;;28.19;50.73;99126.97;5051245;28;9172;-75
2021/03/25 03:07:08;;;;;;;;;25.00;24.33;;;;;28.18;50.61;99115.34;5053605;28;9175;-74
2021/03/25 03:09:39;;;;;;;;;25.00;24.00;;;;;28.25;51.55;99125.50;5053915;28;9962;-75
2021/03/25 03:12:22;;;;;;;;;32.67;30.00;;;;;28.23;51.18;99116.94;5047865;28;9027;-76
2021/03/25 03:14:57;;;;;;;;;25.67;25.67;;;;;28.16;50.70;99095.16;5043532;28;9252;-74
2021/03/25 03:17:34;;;;;;;;;24.33;23.00;;;;;28.35;50.71;99105.03;5043582;28;9228;-75
2021/03/25 03:20:13;;;;;;;;;27.00;27.00;;;;;28.38;50.49;99115.91;5043086;28;9276;-75
2021/03/25 03:22:42;;;;;;;;;26.67;26.67;;;;;28.39;50.76;99113.97;5043988;28;9168;-75
2021/03/25 03:25:14;;;;;;;;;28.00;27.67;;;;;28.36;50.79;99112.00;5043909;28;9046;-75
2021/03/25 03:28:10;;;;;;;;;27.67;27.33;;;;;28.46;50.15;99114.81;5044135;28;9023;-75
2021/03/25 03:30:51;;;;;;;;;29.33;29.00;;;;;28.44;51.05;99102.78;5044053;28;9010;-75
2021/03/25 03:33:25;;;;;;;;;28.00;25.67;;;;;28.61;50.63;99114.88;5044264;28;9305;-75
2021/03/25 03:36:08;;;;;;;;;26.00;26.00;;;;;28.60;50.33;99105.22;5042402;28;9186;-75
2021/03/25 03:38:42;;;;;;;;;36.67;30.00;;;;;28.69;50.10;99116.47;5042076;28;9283;-75
2021/03/25 03:41:17;;;;;;;;;30.33;30.33;;;;;28.69;50.62;99113.78;5043081;28;9305;-75
2021/03/25 03:43:48;;;;;;;;;27.33;27.33;;;;;28.69;50.32;99105.63;5044082;28;9179;-76
2021/03/25 03:46:21;;;;;;;;;24.00;24.00;;;;;28.80;50.65;99106.47;5045315;28;9103;-75
2021/03/25 03:48:58;;;;;;;;;28.33;27.33;;;;;28.89;49.97;99107.72;5036355;28;8874;-76
2021/03/25 03:51:42;;;;;;;;;28.33;28.33;;;;;28.97;50.61;99107.75;5043212;28;8939;-74
2021/03/25 03:54:13;;;;;;;;;26.00;25.00;;;;;29.07;50.06;99109.75;5042507;28;9157;-77
2021/03/25 03:56:48;;;;;;;;;26.25;26.25;;;;;29.10;49.64;99100.84;5045061;28;9089;-76
2021/03/25 03:59:33;;;;;;;;;27.00;27.00;;;;;29.08;49.72;99101.22;5044891;28;8840;-75
2021/03/25 04:02:21;;;;;;;;;28.67;28.67;;;;;29.07;49.64;99090.72;5044340;28;9069;-76
2021/03/25 04:05:06;;;;;;;;;25.67;25.67;;;;;29.10;50.01;99088.03;5042491;28;9139;-76
2021/03/25 04:07:38;;;;;;;;;25.33;25.33;;;;;29.08;49.64;99073.28;5039274;28;9079;-76
2021/03/25 04:10:21;;;;;;;;;32.67;28.33;;;;;29.12;50.64;99074.06;5037411;28;9015;-76
2021/03/25 04:12:57;;;;;;;;;27.33;27.33;;;;;29.25;50.66;99069.06;5037282;28;9005;-77
2021/03/25 04:15:30;;;;;;;;;27.50;27.50;;;;;29.39;49.79;99069.09;5045352;28;8939;-77
2021/03/25 04:18:29;;;;;;;;;23.00;22.75;;;;;29.55;50.01;99064.13;5051735;28;8848;-76
2021/03/25 04:21:09;;;;;;;;;34.33;32.00;;;;;29.70;49.36;99067.66;5042574;28;8852;-76
2021/03/25 04:23:43;;;;;;;;;24.67;24.67;;;;;29.82;49.31;99059.13;5042312;28;9366;-75
2021/03/25 04:26:21;;;;;;;;;28.50;27.50;;;;;29.93;48.96;99053.66;5042737;28;8955;-75
2021/03/25 04:29:02;;;;;;;;;27.00;27.00;;;;;30.04;48.30;99046.28;5040876;28;8900;-76
2021/03/25 04:31:33;;;;;;;;;27.75;27.00;;;;;30.16;48.55;99043.97;5042214;28;8839;-76
2021/03/25 04:34:04;;;;;;;;;23.00;21.75;;;;;30.20;47.86;99033.06;5041217;28;8848;-76
2021/03/25 04:36:39;;;;;;;;;25.00;25.00;;;;;30.36;48.36;99030.72;5043262;28;8853;-76
2021/03/25 04:39:11;;;;;;;;;21.50;21.50;;;;;30.40;48.49;99030.72;5040462;28;8866;-76
2021/03/25 04:41:42;;;;;;;;;22.50;22.50;;;;;30.40;48.13;99030.72;5040426;28;8989;-74
2021/03/25 04:44:35;;;;;;;;;24.25;24.25;;;;;30.35;48.36;99021.00;5040220;28;8949;-75
2021/03/25 04:47:16;;;;;;;;;18.25;18.25;;;;;30.29;48.53;99006.22;5033872;28;9032;-75
2021/03/25 04:49:51;;;;;;;;;31.33;31.00;;;;;30.20;48.07;99000.41;5041914;28;8876;-73
2021/03/25 04:52:23;;;;;;;;;24.50;24.50;;;;;30.16;47.91;98994.97;5040774;28;9014;-73
2021/03/25 04:54:54;;;;;;;;;21.50;21.50;;;;;30.22;48.04;98994.59;5039837;28;8839;-75
2021/03/25 04:57:28;;;;;;;;;23.50;21.75;;;;;30.20;46.92;98962.31;5040445;28;8942;-74
2021/03/25 05:00:11;;;;;;;;;19.00;19.00;;;;;30.40;48.10;98966.16;5038583;28;8878;-74
2021/03/25 05:02:42;;;;;;;;;17.00;17.00;;;;;30.43;47.59;98957.22;5040146;28;8847;-76
2021/03/25 05:05:18;;;;;;;;;22.25;22.25;;;;;30.51;46.90;98961.44;5038001;28;8965;-76
2021/03/25 05:07:54;;;;;;;;;25.25;25.25;;;;;30.48;47.91;98947.84;5039134;28;9623;-76
2021/03/25 05:10:34;;;;;;;;;20.75;20.75;;;;;30.46;47.98;98939.31;5042859;28;8943;-76
2021/03/25 05:13:07;;;;;;;;;24.00;23.75;;;;;30.54;47.58;98948.22;5048521;28;8856;-77
2021/03/25 05:15:36;;;;;;;;;22.50;22.50;;;;;30.50;46.70;98940.06;5049867;28;8963;-77
2021/03/25 05:18:29;;;;;;;;;22.75;21.75;;;;;30.49;46.70;98935.78;5035533;28;8854;-77
2021/03/25 05:21:23;;;;;;;;;21.50;21.50;;;;;30.52;47.11;98938.50;5031998;28;8847;-75
2021/03/25 05:24:00;;;;;;;;;21.75;19.75;;;;;30.52;46.83;98933.06;5034284;28;8955;-75
2021/03/25 05:26:45;;;;;;;;;19.25;19.25;;;;;30.59;47.01;98923.34;5041488;28;9029;-76
2021/03/25 05:29:15;;;;;;;;;20.00;20.00;;;;;30.75;46.65;98926.38;5042141;28;8828;-75
2021/03/25 05:31:47;;;;;;;;;19.75;19.75;;;;;30.83;46.71;98909.59;5033600;28;8901;-75
2021/03/25 05:34:17;;;;;;;;;22.00;21.00;;;;;31.00;45.35;98905.22;5039611;28;8851;-75
2021/03/25 05:36:46;;;;;;;;;19.75;19.75;;;;;31.13;45.58;98889.16;5039752;28;8870;-76
2021/03/25 05:39:15;;;;;;;;;19.75;19.75;;;;;31.31;46.10;98876.19;5036817;28;8855;-77
2021/03/25 05:42:01;;;;;;;;;18.00;18.00;;;;;31.48;45.51;98879.94;5037507;28;8983;-77
2021/03/25 05:44:56;;;;;;;;;17.00;17.00;;;;;31.62;46.08;98874.34;5039387;28;9675;-75
2021/03/25 05:47:37;;;;;;;;;21.50;21.50;;;;;31.73;44.88;98872.31;5040419;28;8867;-75
2021/03/25 05:50:19;;;;;;;;;20.50;19.50;;;;;31.86;44.70;98866.34;5040864;28;9588;-76
2021/03/25 05:53:13;;;;;;;;;18.50;18.50;;;;;32.00;44.55;98861.50;5047709;28;8841;-76
2021/03/25 05:56:02;;;;;;;;;20.50;19.75;;;;;32.16;45.60;98851.97;5037053;28;8989;-73
2021/03/25 05:58:35;;;;;;;;;17.25;17.25;;;;;32.22;44.05;98850.34;5046513;28;8856;-76
2021/03/25 06:01:13;;;;;;;;;19.00;19.00;;;;;32.24;44.56;98851.50;5050427;28;8888;-74
2021/03/25 06:04:06;;;;;;;;;19.50;19.00;;;;;32.18;42.80;98838.69;5050458;28;8848;-74
2021/03/25 06:06:56;;;;;;;;;20.00;20.00;;;;;32.20;43.61;98828.13;5050692;28;8876;-74
2021/03/25 06:09:37;;;;;;;;;19.75;19.75;;;;;32.27;42.38;98820.66;5048922;28;8997;-77
2021/03/25 06:12:17;;;;;;;;;18.25;18.25;;;;;32.40;44.28;98823.59;5050820;28;8967;-78
2021/03/25 06:15:02;;;;;;;;;18.00;18.00;;;;;32.47;43.37;98807.13;5054021;28;8848;-74
2021/03/25 06:17:30;;;;;;;;;21.25;21.00;;;;;32.52;43.04;98803.13;5054979;28;8840;-76
2021/03/25 06:20:13;;;;;;;;;17.50;17.50;;;;;32.56;43.27;98798.41;5053185;28;9600;-77
2021/03/25 06:23:01;;;;;;;;;19.50;19.50;;;;;32.62;42.06;98783.09;5053638;28;8854;-76
2021/03/25 06:25:58;;;;;;;;;16.25;16.25;;;;;32.66;43.10;98778.34;5054042;28;8856;-78
2021/03/25 06:28:42;;;;;;;;;19.00;19.00;;;;;32.66;44.44;98761.97;5054565;28;9603;-74
2021/03/25 06:31:23;;;;;;;;;15.50;15.50;;;;;32.63;44.54;98770.97;5054423;28;8864;-80
2021/03/25 06:34:07;;;;;;;;;18.25;18.25;;;;;32.55;42.29;98756.66;5053988;28;8925;-76
2021/03/25 06:36:50;;;;;;;;;21.25;21.25;;;;;32.51;43.01;98753.22;5053586;28;9674;-75
2021/03/25 06:39:30;;;;;;;;;21.75;21.75;;;;;32.62;42.18;98751.09;5055045;28;8836;-76
2021/03/25 06:42:08;;;;;;;;;18.50;18.50;;;;;32.74;42.35;98744.25;5054649;28;8860;-76
2021/03/25 06:44:49;;;;;;;;;19.25;18.50;;;;;32.82;42.49;98731.28;5054560;28;9627;-75
2021/03/25 06:47:23;;;;;;;;;18.25;18.25;;;;;32.91;42.81;98731.53;5054022;28;8848;-76
2021/03/25 06:49:57;;;;;;;;;19.00;19.00;;;;;32.89;42.75;98723.75;5051871;28;8852;-74
2021/03/25 06:52:33;;;;;;;;;15.25;15.25;;;;;32.86;42.50;98724.56;5054238;28;8852;-77
2021/03/25 06:55:14;;;;;;;;;16.00;16.00;;;;;32.85;43.19;98719.53;5054477;28;8852;-77
2021/03/25 06:57:56;;;;;;;;;13.25;13.25;;;;;32.82;42.98;98712.94;5051285;28;9660;-77
2021/03/25 07:00:28;;;;;;;;;19.50;19.00;;;;;32.75;43.01;98702.09;5046741;28;8878;-74
2021/03/25 07:02:58;;;;;;;;;20.00;20.00;;;;;32.81;41.85;98705.94;5044951;28;8860;-76
2021/03/25 07:05:31;;;;;;;;;20.00;20.00;;;;;32.77;42.08;98688.84;5035729;28;8854;-77
2021/03/25 07:08:15;;;;;;;;;20.00;20.00;;;;;32.96;41.37;98698.25;5040975;28;8969;-75
2021/03/25 07:10:48;;;;;;;;;18.50;18.50;;;;;33.07;43.58;98690.63;5049987;28;8855;-76
2021/03/25 07:13:30;;;;;;;;;19.75;19.75;;;;;33.14;42.08;98685.03;5053123;28;9027;-76
2021/03/25 07:16:00;;;;;;;;;15.50;15.50;;;;;33.13;42.31;98669.06;5049742;28;8850;-77
2021/03/25 07:18:41;;;;;;;;;17.75;17.75;;;;;33.11;41.89;98674.94;5031431;28;8877;-77
2021/03/25 07:21:30;;;;;;;;;16.75;16.75;;;;;33.12;43.46;98672.97;5033163;28;8851;-77
2021/03/25 07:24:01;;;;;;;;;17.00;17.00;;;;;33.01;42.18;98665.75;5048896;28;8855;-77
2021/03/25 07:26:38;;;;;;;;;17.25;16.75;;;;;32.93;42.89;98669.03;5033771;28;8851;-77
2021/03/25 07:29:10;;;;;;;;;17.25;17.25;;;;;32.87;42.95;98666.00;5033919;28;8932;-77
2021/03/25 07:31:52;;;;;;;;;17.00;17.00;;;;;32.82;43.55;98654.78;5033160;28;8869;-76
2021/03/25 07:34:39;;;;;;;;;20.25;20.25;;;;;32.77;41.76;98652.53;5033276;28;8843;-76
2021/03/25 07:37:10;;;;;;;;;17.50;16.50;;;;;32.73;42.35;98653.34;5034304;28;8881;-76
2021/03/25 07:39:49;;;;;;;;;13.75;13.75;;;;;32.74;42.22;98652.16;5034369;28;8872;-76
2021/03/25 07:42:38;;;;;;;;;23.25;22.00;;;;;32.77;42.56;98645.13;5034869;28;8846;-76
2021/03/25 07:45:33;;;;;;;;;18.50;18.00;;;;;32.82;42.85;98644.63;5034776;28;8865;-79
2021/03/25 07:48:25;;;;;;;;;19.00;19.00;;;;;32.92;41.55;98638.22;5035549;28;8843;-77
2021/03/25 07:51:10;;;;;;;;;18.50;17.00;;;;;33.01;42.49;98635.69;5035483;28;8839;-78
2021/03/25 07:53:40;;;;;;;;;17.00;16.50;;;;;32.92;42.17;98621.81;5034601;28;8855;-77
2021/03/25 07:56:16;;;;;;;;;16.75;16.25;;;;;33.01;41.93;98634.91;5033733;28;8849;-77
2021/03/25 07:59:04;;;;;;;;;17.00;17.00;;;;;32.92;41.78;98629.25;5050446;28;8836;-77
2021/03/25 08:01:32;;;;;;;;;17.25;17.25;;;;;32.89;41.41;98625.38;5033516;28;8842;-76
2021/03/25 08:04:01;;;;;;;;;17.75;17.75;;;;;32.80;41.62;98621.66;5033242;28;8842;-76
2021/03/25 08:06:37;;;;;;;;;18.75;18.75;;;;;32.78;42.97;98619.34;5033453;28;8834;-77
2021/03/25 08:09:10;;;;;;;;;18.25;16.00;;;;;32.70;42.12;98617.91;5034055;28;8831;-76
2021/03/25 08:11:53;;;;;;;;;18.00;18.00;;;;;32.69;42.18;98621.81;5033322;28;8862;-75
2021/03/25 08:14:29;;;;;;;;;19.25;19.25;;;;;32.65;42.69;98621.13;5033184;28;8843;-75
2021/03/25 08:17:13;;;;;;;;;16.00;15.50;;;;;32.62;42.22;98621.94;5033068;28;8854;-76
2021/03/25 08:20:05;;;;;;;;;18.75;18.25;;;;;32.57;43.20;98625.16;5032993;28;8953;-76
2021/03/25 08:22:43;;;;;;;;;15.50;15.50;;;;;32.53;42.58;98624.44;5032852;28;8858;-76
2021/03/25 08:25:21;;;;;;;;;17.50;17.50;;;;;32.45;42.26;98621.09;5032956;28;8869;-76
2021/03/25 08:27:58;;;;;;;;;19.75;19.75;;;;;32.41;42.57;98618.44;5032913;28;8854;-76
2021/03/25 08:30:47;;;;;;;;;18.25;17.25;;;;;32.39;43.16;98614.56;5031714;28;8843;-75
2021/03/25 08:33:19;;;;;;;;;18.00;18.00;;;;;32.37;42.82;98614.22;5032980;28;8842;-77
2021/03/25 08:36:12;;;;;;;;;18.25;17.75;;;;;32.32;42.11;98620.16;5032298;28;9548;-78
2021/03/25 08:38:58;;;;;;;;;17.50;17.25;;;;;32.27;42.78;98615.94;5032732;28;8862;-77
2021/03/25 08:41:37;;;;;;;;;17.25;17.25;;;;;32.22;43.06;98608.19;5032588;28;8847;-79
2021/03/25 08:44:12;;;;;;;;;21.25;21.25;;;;;32.18;43.26;98607.47;5032906;28;9642;-76
2021/03/25 08:47:19;;;;;;;;;14.75;14.75;;;;;32.18;43.39;98609.44;5033001;28;8850;-76
2021/03/25 08:50:20;;;;;;;;;18.25;18.25;;;;;32.12;42.75;98611.84;5033781;28;8916;-76
2021/03/25 08:52:53;;;;;;;;;17.50;17.50;;;;;32.03;43.45;98609.66;5033968;28;9016;-76
2021/03/25 08:55:34;;;;;;;;;19.50;16.25;;;;;32.02;43.61;98607.34;5043257;28;8953;-73
2021/03/25 08:58:07;;;;;;;;;18.50;18.50;;;;;31.97;43.69;98602.34;5051184;28;9652;-76
2021/03/25 09:00:41;;;;;;;;;19.00;19.00;;;;;31.90;43.29;98605.19;5046571;28;8951;-78
2021/03/25 09:03:27;;;;;;;;;20.00;20.00;;;;;31.90;43.38;98603.22;5049990;28;8879;-75
2021/03/25 09:06:22;;;;;;;;;20.00;20.00;;;;;31.89;44.05;98595.47;5045338;28;8857;-74
2021/03/25 09:09:19;;;;;;;;;19.50;18.50;;;;;31.83;42.93;98588.94;5044237;28;8866;-75
2021/03/25 09:11:58;;;;;;;;;20.25;20.00;;;;;31.81;43.92;98580.38;5047271;28;8896;-77
2021/03/25 09:14:30;;;;;;;;;20.25;20.25;;;;;31.86;43.99;98593.56;5047693;28;8985;-81
2021/03/25 09:17:15;;;;;;;;;19.00;18.50;;;;;31.82;44.25;98590.88;5041152;28;8844;-79
2021/03/25 09:19:52;;;;;;;;;20.50;19.00;;;;;31.68;43.90;98578.22;5055716;28;9569;-79
2021/03/25 09:22:37;;;;;;;;;21.25;21.25;;;;;31.71;43.54;98588.31;5066234;28;8868;-77
2021/03/25 09:25:25;;;;;;;;;21.00;21.00;;;;;31.69;43.26;98585.22;5044918;28;8843;-78
2021/03/25 09:28:07;;;;;;;;;24.00;21.50;;;;;31.67;43.53;98582.09;5049672;28;8850;-79
2021/03/25 09:31:09;;;;;;;;;23.75;22.75;;;;;31.68;43.13;98588.34;5045885;28;8860;-79
2021/03/25 09:33:48;;;;;;;;;19.50;19.50;;;;;31.66;44.39;98577.06;5053263;28;9835;-75
2021/03/25 09:36:19;;;;;;;;;20.25;20.25;;;;;31.64;43.07;98588.38;5039522;28;8910;-74
2021/03/25 09:38:58;;;;;;;;;19.00;19.00;;;;;31.64;43.57;98577.47;5040523;28;8874;-76
2021/03/25 09:41:30;;;;;;;;;21.75;21.75;;;;;31.65;43.33;98583.69;5038481;28;8893;-75
2021/03/25 09:44:11;;;;;;;;;23.00;20.75;;;;;31.64;44.05;98577.47;5035804;28;8998;-75
2021/03/25 09:46:52;;;;;;;;;19.00;18.25;;;;;31.65;43.64;98579.03;5038243;28;8878;-80
2021/03/25 09:49:27;;;;;;;;;19.75;19.75;;;;;31.63;43.58;98572.44;5036877;28;9026;-74
2021/03/25 09:52:08;;;;;;;;;19.50;19.50;;;;;31.63;43.39;98569.72;5051568;28;8945;-76
2021/03/25 09:54:57;;;;;;;;;19.00;19.00;;;;;31.63;42.76;98573.19;5055365;28;8852;-74
2021/03/25 09:57:32;;;;;;;;;16.75;16.75;;;;;31.63;43.24;98565.03;5031409;28;8855;-75
2021/03/25 10:00:14;;;;;;;;;20.00;20.00;;;;;31.63;42.78;98562.28;5034102;28;8869;-74
2021/03/25 10:02:51;;;;;;;;;16.75;16.75;;;;;31.65;42.69;98561.88;5028980;28;8859;-74
2021/03/25 10:05:30;;;;;;;;;18.50;18.25;;;;;31.66;42.63;98568.88;5030752;28;8862;-74
2021/03/25 10:08:19;;;;;;;;;21.25;21.00;;;;;31.67;43.21;98554.84;5030460;28;8839;-74
2021/03/25 10:11:01;;;;;;;;;20.50;20.50;;;;;31.63;43.19;98547.88;5031434;28;8827;-75
2021/03/25 10:13:41;;;;;;;;;18.50;18.50;;;;;31.65;42.92;98551.75;5031310;28;9605;-74
2021/03/25 10:16:31;;;;;;;;;17.50;17.50;;;;;31.66;42.94;98557.97;5031442;28;9593;-75
2021/03/25 10:19:02;;;;;;;;;17.75;17.75;;;;;31.62;42.55;98549.84;5030290;28;8854;-74
2021/03/25 10:21:45;;;;;;;;;22.00;20.25;;;;;31.67;42.76;98554.06;5031413;28;8857;-74
2021/03/25 10:24:35;;;;;;;;;20.25;19.75;;;;;31.64;43.12;98552.94;5031577;28;8839;-76
2021/03/25 10:27:16;;;;;;;;;18.75;18.00;;;;;31.66;42.41;98553.28;5031519;28;8870;-77
2021/03/25 10:29:46;;;;;;;;;20.00;19.75;;;;;31.66;42.95;98558.75;5031371;28;8885;-77
2021/03/25 10:32:19;;;;;;;;;17.75;17.75;;;;;31.60;43.02;98549.50;5032169;28;8839;-77
2021/03/25 10:34:48;;;;;;;;;17.75;16.25;;;;;31.60;43.15;98554.94;5036840;28;8844;-76
2021/03/25 10:37:26;;;;;;;;;20.25;20.25;;;;;31.65;43.16;98556.44;5041433;28;8861;-76
2021/03/25 10:40:06;;;;;;;;;17.75;17.75;;;;;31.62;43.08;98565.44;5041403;28;9630;-77
2021/03/25 10:42:37;;;;;;;;;18.75;18.75;;;;;31.64;43.67;98565.78;5041993;28;8879;-78
2021/03/25 10:45:31;;;;;;;;;19.50;17.75;;;;;31.60;43.45;98563.13;5048361;28;8906;-78
2021/03/25 10:48:19;;;;;;;;;22.50;21.75;;;;;31.59;43.90;98560.81;5047049;28;8836;-76
2021/03/25 10:51:15;;;;;;;;;21.00;21.00;;;;;31.53;44.00;98555.03;5050120;28;8840;-78
2021/03/25 10:53:52;;;;;;;;;25.75;25.75;;;;;31.55;43.86;98565.53;5040929;28;8857;-80
2021/03/25 10:56:25;;;;;;;;;23.25;21.50;;;;;31.50;43.89;98566.78;5032614;28;8842;-77
2021/03/25 10:58:59;;;;;;;;;19.25;18.25;;;;;31.47;43.76;98570.31;5032694;28;8988;-77
2021/03/25 11:01:30;;;;;;;;;18.50;18.50;;;;;31.43;44.12;98572.31;5034440;28;8839;-76
2021/03/25 11:03:59;;;;;;;;;20.25;19.00;;;;;31.36;44.32;98570.47;5034272;28;8847;-75
2021/03/25 11:06:36;;;;;;;;;20.25;19.00;;;;;31.35;43.70;98568.16;5052599;28;8840;-76
2021/03/25 11:09:11;;;;;;;;;24.75;24.75;;;;;31.30;44.19;98568.59;5054351;28;8917;-77
2021/03/25 11:11:39;;;;;;;;;19.25;19.25;;;;;31.20;44.44;98569.53;5054030;28;8839;-76
2021/03/25 11:14:26;;;;;;;;;17.50;17.50;;;;;31.25;44.79;98575.28;5054318;28;8836;-76
2021/03/25 11:17:02;;;;;;;;;21.50;21.50;;;;;31.22;45.00;98578.03;5054446;28;8856;-76
2021/03/25 11:19:31;;;;;;;;;20.50;20.50;;;;;31.16;44.36;98569.59;5053284;28;8863;-76
2021/03/25 11:22:00;;;;;;;;;17.00;17.00;;;;;31.12;44.03;98577.00;5054597;28;8864;-78
2021/03/25 11:24:34;;;;;;;;;18.50;18.50;;;;;31.09;44.07;98589.47;5053623;28;8967;-77
2021/03/25 11:27:07;;;;;;;;;22.00;22.00;;;;;31.01;45.31;98574.41;5045720;28;8852;-78
2021/03/25 11:29:38;;;;;;;;;24.25;24.25;;;;;30.99;44.86;98587.66;5054261;28;8868;-76
2021/03/25 11:32:26;;;;;;;;;25.25;25.25;;;;;30.95;45.41;98597.81;5054133;28;9058;-78
2021/03/25 11:34:55;;;;;;;;;24.00;24.00;;;;;30.90;45.21;98592.81;5054038;28;8975;-78
2021/03/25 11:37:36;;;;;;;;;24.25;24.25;;;;;30.86;44.88;98588.59;5053774;28;8856;-75
2021/03/25 11:40:15;;;;;;;;;21.75;21.75;;;;;30.76;44.80;98587.53;5053249;28;8863;-76
2021/03/25 11:43:02;;;;;;;;;25.75;25.25;;;;;30.79;44.38;98595.66;5054117;28;8863;-77
2021/03/25 11:45:45;;;;;;;;;29.75;29.75;;;;;30.69;45.35;98599.25;5052978;28;8833;-78
2021/03/25 11:48:26;;;;;;;;;22.50;22.00;;;;;30.72;45.11;98606.63;5052672;28;8839;-77
2021/03/25 11:51:16;;;;;;;;;25.75;24.50;;;;;30.69;45.40;98606.66;5044254;28;9618;-75
2021/03/25 11:53:47;;;;;;;;;26.50;25.50;;;;;30.64;45.42;98610.59;5041466;28;8989;-75
2021/03/25 11:56:27;;;;;;;;;23.25;23.25;;;;;30.65;45.11;98616.81;5049911;28;8998;-75
2021/03/25 11:59:14;;;;;;;;;23.25;23.25;;;;;30.63;45.23;98613.72;5043306;28;8869;-75
2021/03/25 12:01:43;;;;;;;;;22.75;22.75;;;;;30.59;45.96;98619.19;5043945;28;8922;-76
2021/03/25 12:04:14;;;;;;;;;24.75;24.75;;;;;30.55;46.15;98617.66;5041169;28;8830;-75
2021/03/25 12:07:14;;;;;;;;;26.00;24.75;;;;;30.54;46.08;98630.50;5041846;28;8842;-75
2021/03/25 12:09:58;;;;;;;;;28.25;28.25;;;;;30.50;46.80;98625.06;5042688;28;8824;-77
2021/03/25 12:12:27;;;;;;;;;23.00;22.75;;;;;30.45;46.52;98622.00;5042050;28;8835;-76
2021/03/25 12:14:56;;;;;;;;;26.25;26.25;;;;;30.46;46.25;98635.22;5041906;28;8847;-76